createdAt,value
2019-01-16T00:00:09.495Z,8.08
2019-01-16T00:01:33.583Z,8.33
2019-01-16T00:03:10.109Z,7.83
2019-01-16T00:04:25.624Z,7.83
2019-01-16T00:05:48.650Z,7.95
2019-01-16T00:07:19.250Z,7.62
2019-01-16T00:08:40.796Z,7.67
2019-01-16T00:10:14.826Z,6.75
2019-01-16T00:11:38.548Z,7.15
2019-01-16T00:13:00.407Z,6.75
2019-01-16T00:14:38.735Z,7.42
2019-01-16T00:16:09.947Z,7.20
2019-01-16T00:17:24.283Z,8.03
2019-01-16T00:18:48.687Z,7.65
2019-01-16T00:20:13.509Z,7.33
2019-01-16T00:21:44.247Z,6.42
2019-01-16T00:23:23.814Z,8.40
2019-01-16T00:24:48.475Z,7.12
2019-01-16T00:26:06.851Z,6.87
2019-01-16T00:27:31.641Z,6.67
2019-01-16T00:28:59.895Z,6.75
2019-01-16T00:30:26.938Z,6.55
2019-01-16T00:32:02.867Z,6.58
2019-01-16T00:33:24.732Z,6.58
2019-01-16T00:34:48.028Z,5.90
2019-01-16T00:36:02.738Z,6.25
2019-01-16T00:37:26.023Z,6.87
2019-01-16T00:39:09.045Z,6.50
2019-01-16T00:40:43.381Z,6.42
2019-01-16T00:42:09.128Z,6.40
2019-01-16T00:43:32.279Z,6.10
2019-01-16T00:44:56.775Z,6.33
2019-01-16T00:46:24.224Z,5.80
2019-01-16T00:47:51.453Z,5.87
2019-01-16T00:49:19.396Z,5.37
2019-01-16T00:50:42.686Z,6.15
2019-01-16T00:52:07.597Z,5.40
2019-01-16T00:53:29.140Z,5.10
2019-01-16T00:55:06.027Z,4.45
2019-01-16T00:56:30.802Z,4.75
2019-01-16T00:57:45.126Z,4.60
2019-01-16T00:59:13.109Z,5.12
2019-01-16T01:00:50.545Z,4.72
2019-01-16T01:02:12.547Z,4.92
2019-01-16T01:03:43.747Z,4.55
2019-01-16T01:05:11.792Z,4.25
2019-01-16T01:06:35.186Z,5.08
2019-01-16T01:08:03.180Z,4.20
2019-01-16T01:09:31.061Z,3.75
2019-01-16T01:10:56.037Z,3.83
2019-01-16T01:12:35.926Z,3.62
2019-01-16T01:14:06.470Z,4.08
2019-01-16T01:15:20.437Z,3.77
2019-01-16T01:16:40.687Z,2.92
2019-01-16T01:18:08.364Z,3.87
2019-01-16T01:19:31.829Z,3.47
2019-01-16T01:20:59.273Z,3.85
2019-01-16T01:22:32.976Z,3.50
2019-01-16T01:23:56.374Z,3.40
2019-01-16T01:25:19.705Z,3.67
2019-01-16T01:26:45.114Z,3.40
2019-01-16T01:28:22.167Z,3.50
2019-01-16T01:29:36.238Z,3.77
2019-01-16T01:31:01.059Z,3.85
2019-01-16T01:32:15.791Z,4.17
2019-01-16T01:33:40.654Z,4.60
2019-01-16T01:35:04.005Z,5.60
2019-01-16T01:36:27.771Z,5.80
2019-01-16T01:37:51.376Z,4.95
2019-01-16T01:39:19.049Z,4.50
2019-01-16T01:40:44.817Z,5.87
2019-01-16T01:42:28.151Z,5.28
2019-01-16T01:43:54.781Z,4.87
2019-01-16T01:45:22.407Z,3.98
2019-01-16T01:46:47.207Z,4.00
2019-01-16T01:48:08.862Z,3.50
2019-01-16T01:49:36.828Z,4.17
2019-01-16T01:50:51.845Z,4.15
2019-01-16T01:52:15.670Z,3.77
2019-01-16T01:53:54.737Z,3.80
2019-01-16T01:55:26.537Z,3.80
2019-01-16T01:57:01.643Z,3.83
2019-01-16T01:58:25.158Z,3.58
2019-01-16T01:59:48.799Z,3.75
2019-01-16T02:01:12.564Z,3.45
2019-01-16T02:02:37.278Z,4.15
2019-01-16T02:04:06.535Z,4.53
2019-01-16T02:05:31.470Z,3.67
2019-01-16T02:06:55.156Z,3.33
2019-01-16T02:08:19.888Z,3.33
2019-01-16T02:09:43.287Z,3.25
2019-01-16T02:11:23.060Z,4.03
2019-01-16T02:12:50.685Z,3.80
2019-01-16T02:14:23.778Z,3.35
2019-01-16T02:15:54.501Z,3.42
2019-01-16T02:17:14.945Z,3.35
2019-01-16T02:18:47.323Z,3.25
2019-01-16T02:20:15.449Z,2.72
2019-01-16T02:21:39.243Z,2.90
2019-01-16T02:23:04.497Z,2.90
2019-01-16T02:24:36.614Z,3.20
2019-01-16T02:26:00.166Z,3.33
2019-01-16T02:27:31.371Z,3.67
2019-01-16T02:28:52.961Z,4.00
2019-01-16T02:30:16.507Z,3.30
2019-01-16T02:31:53.393Z,3.15
2019-01-16T02:33:21.052Z,3.15
2019-01-16T02:34:54.934Z,3.25
2019-01-16T02:36:18.219Z,3.35
2019-01-16T02:37:34.289Z,3.70
2019-01-16T02:38:57.858Z,3.30
2019-01-16T02:40:22.164Z,4.12
2019-01-16T02:41:53.021Z,3.00
2019-01-16T02:43:32.989Z,3.50
2019-01-16T02:45:08.867Z,3.77
2019-01-16T02:46:37.207Z,3.30
2019-01-16T02:48:13.774Z,3.60
2019-01-16T02:49:42.249Z,3.40
2019-01-16T02:51:06.910Z,4.12
2019-01-16T02:52:33.891Z,3.67
2019-01-16T02:54:19.402Z,3.87
2019-01-16T02:55:49.919Z,3.67
2019-01-16T02:57:09.006Z,2.98
2019-01-16T02:58:33.849Z,3.75
2019-01-16T02:59:58.567Z,3.85
2019-01-16T03:01:23.883Z,4.28
2019-01-16T03:02:47.157Z,3.45
2019-01-16T03:04:11.784Z,3.50
2019-01-16T03:05:35.383Z,3.72
2019-01-16T03:06:50.214Z,3.98
2019-01-16T03:08:24.398Z,3.62
2019-01-16T03:09:47.782Z,3.62
2019-01-16T03:11:12.450Z,3.83
2019-01-16T03:12:33.324Z,4.00
2019-01-16T03:13:56.466Z,3.67
2019-01-16T03:15:23.885Z,4.40
2019-01-16T03:16:48.580Z,3.22
2019-01-16T03:18:14.143Z,4.15
2019-01-16T03:19:41.505Z,3.92
2019-01-16T03:21:05.008Z,3.75
2019-01-16T03:22:30.812Z,3.87
2019-01-16T03:24:01.401Z,3.87
2019-01-16T03:25:29.549Z,3.90
2019-01-16T03:27:03.133Z,4.10
2019-01-16T03:28:26.928Z,4.17
2019-01-16T03:30:00.910Z,3.60
2019-01-16T03:31:31.674Z,4.15
2019-01-16T03:33:07.287Z,3.67
2019-01-16T03:34:36.562Z,3.67
2019-01-16T03:36:01.231Z,4.00
2019-01-16T03:37:24.960Z,5.00
2019-01-16T03:38:48.459Z,4.10
2019-01-16T03:40:13.107Z,3.60
2019-01-16T03:41:28.849Z,4.42
2019-01-16T03:42:49.587Z,3.90
2019-01-16T03:44:23.341Z,3.50
2019-01-16T03:46:03.729Z,3.95
2019-01-16T03:47:46.598Z,3.65
2019-01-16T03:49:13.894Z,3.98
2019-01-16T03:50:39.403Z,4.10
2019-01-16T03:52:02.909Z,3.20
2019-01-16T03:53:26.546Z,3.70
2019-01-16T03:54:51.534Z,3.77
2019-01-16T03:56:23.527Z,3.15
2019-01-16T03:57:51.369Z,3.92
2019-01-16T03:59:16.198Z,3.58
2019-01-16T04:00:39.519Z,4.40
2019-01-16T04:02:13.373Z,3.60
2019-01-16T04:03:38.145Z,3.20
2019-01-16T04:04:54.737Z,2.75
2019-01-16T04:06:13.114Z,3.70
2019-01-16T04:07:27.222Z,3.83
2019-01-16T04:08:48.697Z,4.22
2019-01-16T04:10:16.443Z,3.60
2019-01-16T04:11:48.270Z,3.25
2019-01-16T04:13:23.111Z,3.02
2019-01-16T04:14:38.290Z,2.90
2019-01-16T04:15:51.645Z,2.90
2019-01-16T04:17:09.517Z,3.40
2019-01-16T04:18:32.679Z,3.27
2019-01-16T04:20:00.234Z,3.67
2019-01-16T04:21:34.359Z,3.55
2019-01-16T04:22:46.496Z,3.67
2019-01-16T04:24:11.376Z,2.92
2019-01-16T04:25:48.313Z,3.55
2019-01-16T04:27:15.740Z,2.58
2019-01-16T04:28:43.563Z,3.02
2019-01-16T04:30:14.399Z,3.27
2019-01-16T04:31:39.466Z,2.52
2019-01-16T04:33:03.019Z,3.47
2019-01-16T04:34:43.078Z,2.87
2019-01-16T04:36:06.433Z,3.47
2019-01-16T04:37:43.463Z,3.20
2019-01-16T04:39:08.128Z,3.40
2019-01-16T04:40:25.115Z,3.10
2019-01-16T04:41:52.590Z,3.35
2019-01-16T04:43:20.078Z,3.37
2019-01-16T04:44:44.760Z,4.03
2019-01-16T04:46:10.987Z,3.40
2019-01-16T04:47:34.071Z,3.70
2019-01-16T04:48:57.744Z,3.80
2019-01-16T04:50:31.873Z,3.33
2019-01-16T04:51:55.326Z,3.70
2019-01-16T04:53:08.128Z,3.40
2019-01-16T04:54:31.665Z,3.55
2019-01-16T04:55:56.413Z,3.42
2019-01-16T04:57:24.069Z,3.60
2019-01-16T04:58:53.694Z,3.40
2019-01-16T05:00:19.415Z,3.20
2019-01-16T05:01:49.920Z,3.05
2019-01-16T05:03:29.652Z,3.85
2019-01-16T05:04:50.263Z,3.37
2019-01-16T05:06:20.904Z,2.85
2019-01-16T05:07:57.680Z,3.55
2019-01-16T05:09:28.652Z,3.62
2019-01-16T05:10:56.063Z,2.92
2019-01-16T05:12:19.976Z,3.50
2019-01-16T05:13:53.901Z,3.15
2019-01-16T05:15:15.816Z,3.98
2019-01-16T05:16:31.894Z,3.40
2019-01-16T05:17:55.133Z,3.10
2019-01-16T05:19:19.587Z,4.40
2019-01-16T05:20:44.255Z,3.15
2019-01-16T05:22:15.962Z,3.17
2019-01-16T05:23:33.064Z,4.28
2019-01-16T05:24:57.898Z,3.33
2019-01-16T05:26:34.955Z,3.15
2019-01-16T05:28:05.763Z,3.47
2019-01-16T05:29:39.437Z,2.92
2019-01-16T05:31:09.987Z,3.75
2019-01-16T05:32:41.157Z,4.20
2019-01-16T05:33:59.144Z,3.75
2019-01-16T05:35:24.693Z,3.62
2019-01-16T05:36:42.971Z,3.80
2019-01-16T05:38:07.794Z,4.42
2019-01-16T05:39:22.759Z,4.28
2019-01-16T05:40:47.410Z,4.30
2019-01-16T05:42:15.097Z,4.30
2019-01-16T05:43:38.345Z,5.67
2019-01-16T05:45:12.511Z,6.72
2019-01-16T05:46:52.437Z,5.85
2019-01-16T05:48:23.162Z,5.65
2019-01-16T05:50:00.214Z,6.20
2019-01-16T05:51:23.077Z,5.30
2019-01-16T05:52:46.345Z,5.80
2019-01-16T05:54:23.537Z,5.15
2019-01-16T05:55:58.654Z,6.65
2019-01-16T05:57:23.294Z,7.20
2019-01-16T05:58:38.628Z,8.73
2019-01-16T06:00:12.611Z,8.58
2019-01-16T06:01:32.808Z,6.58
2019-01-16T06:02:54.148Z,9.38
2019-01-16T06:04:18.967Z,7.97
2019-01-16T06:05:42.289Z,8.90
2019-01-16T06:07:05.818Z,9.78
2019-01-16T06:08:36.800Z,9.13
2019-01-16T06:10:03.673Z,7.87
2019-01-16T06:11:33.945Z,8.13
2019-01-16T06:13:07.411Z,8.30
2019-01-16T06:14:37.738Z,8.50
2019-01-16T06:15:52.527Z,8.58
2019-01-16T06:17:23.162Z,7.37
2019-01-16T06:18:41.320Z,7.35
2019-01-16T06:20:04.867Z,8.30
2019-01-16T06:21:35.834Z,8.88
2019-01-16T06:23:09.863Z,8.73
2019-01-16T06:24:33.487Z,7.70
2019-01-16T06:25:52.242Z,8.25
2019-01-16T06:27:17.668Z,8.13
2019-01-16T06:28:45.124Z,8.95
2019-01-16T06:30:15.889Z,8.98
2019-01-16T06:31:43.760Z,8.43
2019-01-16T06:33:08.434Z,8.40
2019-01-16T06:34:45.612Z,8.18
2019-01-16T06:36:12.241Z,7.87
2019-01-16T06:37:39.694Z,7.62
2019-01-16T06:39:10.212Z,7.87
2019-01-16T06:40:44.095Z,8.50
2019-01-16T06:42:14.912Z,7.35
2019-01-16T06:43:38.297Z,7.95
2019-01-16T06:45:01.586Z,7.65
2019-01-16T06:46:26.238Z,8.48
2019-01-16T06:47:57.238Z,7.70
2019-01-16T06:49:24.876Z,9.78
2019-01-16T06:50:48.143Z,9.23
2019-01-16T06:52:15.826Z,9.10
2019-01-16T06:53:43.297Z,8.40
2019-01-16T06:55:13.963Z,10.40
2019-01-16T06:56:53.637Z,10.08
2019-01-16T06:58:12.818Z,9.55
2019-01-16T06:59:40.199Z,9.15
2019-01-16T07:01:04.893Z,9.48
2019-01-16T07:02:28.591Z,9.28
2019-01-16T07:04:05.348Z,10.53
2019-01-16T07:05:48.509Z,9.43
2019-01-16T07:07:01.915Z,10.78
2019-01-16T07:08:29.246Z,9.83
2019-01-16T07:09:52.336Z,9.18
2019-01-16T07:11:15.622Z,10.43
2019-01-16T07:12:40.259Z,10.05
2019-01-16T07:14:03.398Z,10.13
2019-01-16T07:15:31.945Z,10.55
2019-01-16T07:16:55.189Z,9.43
2019-01-16T07:18:16.009Z,8.70
2019-01-16T07:19:49.294Z,7.62
2019-01-16T07:21:30.037Z,7.22
2019-01-16T07:22:54.733Z,6.87
2019-01-16T07:24:19.969Z,7.50
2019-01-16T07:25:44.781Z,8.73
2019-01-16T07:27:08.261Z,7.95
2019-01-16T07:28:35.487Z,8.93
2019-01-16T07:30:09.417Z,7.97
2019-01-16T07:31:34.257Z,7.03
2019-01-16T07:32:49.401Z,6.87
2019-01-16T07:34:20.178Z,7.95
2019-01-16T07:35:44.529Z,7.42
2019-01-16T07:37:11.285Z,7.12
2019-01-16T07:38:34.244Z,5.70
2019-01-16T07:40:08.145Z,7.05
2019-01-16T07:41:38.825Z,5.17
2019-01-16T07:43:13.647Z,5.87
2019-01-16T07:44:50.284Z,5.80
2019-01-16T07:46:13.186Z,5.35
2019-01-16T07:47:36.582Z,5.37
2019-01-16T07:49:10.472Z,5.53
2019-01-16T07:50:41.174Z,5.53
2019-01-16T07:52:08.662Z,6.45
2019-01-16T07:53:32.057Z,6.53
2019-01-16T07:55:09.300Z,5.85
2019-01-16T07:56:26.300Z,6.05
2019-01-16T07:57:47.956Z,6.05
2019-01-16T07:59:12.578Z,6.65
2019-01-16T08:00:36.002Z,5.58
2019-01-16T08:02:10.264Z,6.08
2019-01-16T08:03:36.145Z,5.37
2019-01-16T08:05:00.867Z,6.85
2019-01-16T08:06:28.301Z,7.17
2019-01-16T08:08:11.405Z,6.80
2019-01-16T08:09:34.985Z,7.62
2019-01-16T08:10:51.833Z,8.30
2019-01-16T08:12:31.706Z,8.28
2019-01-16T08:14:08.719Z,8.40
2019-01-16T08:15:29.401Z,7.53
2019-01-16T08:16:57.133Z,7.85
2019-01-16T08:18:22.101Z,7.67
2019-01-16T08:19:58.905Z,7.70
2019-01-16T08:21:22.224Z,8.95
2019-01-16T08:23:05.561Z,10.10
2019-01-16T08:24:24.568Z,9.08
2019-01-16T08:25:47.728Z,9.75
2019-01-16T08:27:04.535Z,10.70
2019-01-16T08:28:35.526Z,9.08
2019-01-16T08:29:49.971Z,9.75
2019-01-16T08:31:19.663Z,11.12
2019-01-16T08:32:42.685Z,10.53
2019-01-16T08:34:06.332Z,10.25
2019-01-16T08:35:32.770Z,11.53
2019-01-16T08:37:06.704Z,9.15
2019-01-16T08:38:40.513Z,9.65
2019-01-16T08:40:05.699Z,9.70
2019-01-16T08:41:38.239Z,10.55
2019-01-16T08:43:11.894Z,9.68
2019-01-16T08:44:35.334Z,9.85
2019-01-16T08:46:06.344Z,9.93
2019-01-16T08:47:49.214Z,9.23
2019-01-16T08:49:12.657Z,9.33
2019-01-16T08:50:43.459Z,8.85
2019-01-16T08:52:09.017Z,9.63
2019-01-16T08:53:35.316Z,9.28
2019-01-16T08:55:10.506Z,9.28
2019-01-16T08:56:33.831Z,9.80
2019-01-16T08:57:57.092Z,8.63
2019-01-16T08:59:21.847Z,9.43
2019-01-16T09:00:45.029Z,10.58
2019-01-16T09:02:28.202Z,9.43
2019-01-16T09:04:08.326Z,9.73
2019-01-16T09:05:36.315Z,9.70
2019-01-16T09:07:02.462Z,10.35
2019-01-16T09:08:18.952Z,9.58
2019-01-16T09:09:46.513Z,9.70
2019-01-16T09:11:29.712Z,10.15
2019-01-16T09:13:00.555Z,10.35
2019-01-16T09:14:34.322Z,9.78
2019-01-16T09:16:02.029Z,10.38
2019-01-16T09:17:42.361Z,10.13
2019-01-16T09:19:20.297Z,9.53
2019-01-16T09:21:00.364Z,9.60
2019-01-16T09:22:25.333Z,10.40
2019-01-16T09:24:05.095Z,10.35
2019-01-16T09:25:29.755Z,11.43
2019-01-16T09:26:49.943Z,11.03
2019-01-16T09:28:13.721Z,11.20
2019-01-16T09:29:44.180Z,11.15
2019-01-16T09:31:24.145Z,11.33
2019-01-16T09:32:47.698Z,10.88
2019-01-16T09:34:11.143Z,10.95
2019-01-16T09:35:38.918Z,12.25
2019-01-16T09:37:18.729Z,10.82
2019-01-16T09:38:43.404Z,10.93
2019-01-16T09:40:20.247Z,11.38
2019-01-16T09:41:42.220Z,11.25
2019-01-16T09:43:18.924Z,11.68
2019-01-16T09:44:42.316Z,10.43
2019-01-16T09:46:07.141Z,9.75
2019-01-16T09:47:32.098Z,10.85
2019-01-16T09:49:04.686Z,11.65
2019-01-16T09:50:23.815Z,10.90
2019-01-16T09:51:48.615Z,10.55
2019-01-16T09:53:12.452Z,11.22
2019-01-16T09:54:52.543Z,11.97
2019-01-16T09:56:21.302Z,11.08
2019-01-16T09:57:46.005Z,11.63
2019-01-16T09:59:19.875Z,11.28
2019-01-16T10:00:47.573Z,12.47
2019-01-16T10:02:11.177Z,10.53
2019-01-16T10:03:45.020Z,11.93
2019-01-16T10:05:08.416Z,10.32
2019-01-16T10:06:27.726Z,12.50
2019-01-16T10:07:55.217Z,16.45
2019-01-16T10:09:29.244Z,14.05
2019-01-16T10:11:09.232Z,11.97
2019-01-16T10:12:45.774Z,11.75
2019-01-16T10:14:19.552Z,10.13
2019-01-16T10:15:56.623Z,10.72
2019-01-16T10:17:17.080Z,10.68
2019-01-16T10:18:47.645Z,10.05
2019-01-16T10:20:18.789Z,10.30
2019-01-16T10:21:44.648Z,9.80
2019-01-16T10:23:15.587Z,10.23
2019-01-16T10:24:38.906Z,10.35
2019-01-16T10:25:56.752Z,9.95
2019-01-16T10:27:36.460Z,9.60
2019-01-16T10:28:59.668Z,11.50
2019-01-16T10:30:33.694Z,11.00
2019-01-16T10:32:01.186Z,11.55
2019-01-16T10:33:22.265Z,11.08
2019-01-16T10:34:46.025Z,12.18
2019-01-16T10:36:47.094Z,11.83
2019-01-16T10:38:14.822Z,11.90
2019-01-16T10:39:57.615Z,11.70
2019-01-16T10:41:21.056Z,12.43
2019-01-16T10:42:44.365Z,12.78
2019-01-16T10:44:27.280Z,12.68
2019-01-16T10:45:51.932Z,11.70
2019-01-16T10:47:14.814Z,13.03
2019-01-16T10:48:38.302Z,13.00
2019-01-16T10:50:05.599Z,12.60
2019-01-16T10:51:28.854Z,15.00
2019-01-16T10:52:53.637Z,13.83
2019-01-16T10:54:18.372Z,14.10
2019-01-16T10:55:35.541Z,13.38
2019-01-16T10:57:18.781Z,12.55
2019-01-16T10:58:52.472Z,11.88
2019-01-16T11:00:23.122Z,12.07
2019-01-16T11:01:46.466Z,10.78
2019-01-16T11:03:29.499Z,11.15
2019-01-16T11:04:59.933Z,10.58
2019-01-16T11:06:34.261Z,11.53
2019-01-16T11:07:46.835Z,10.98
2019-01-16T11:09:23.656Z,11.20
2019-01-16T11:10:57.072Z,11.20
2019-01-16T11:12:19.897Z,11.68
2019-01-16T11:14:03.248Z,10.82
2019-01-16T11:15:30.397Z,10.60
2019-01-16T11:16:56.846Z,11.10
2019-01-16T11:18:32.074Z,11.20
2019-01-16T11:19:54.879Z,10.82
2019-01-16T11:21:30.425Z,11.33
2019-01-16T11:22:55.096Z,10.30
2019-01-16T11:24:19.775Z,11.05
2019-01-16T11:25:43.131Z,10.55
2019-01-16T11:27:10.520Z,10.68
2019-01-16T11:28:34.821Z,10.32
2019-01-16T11:29:59.513Z,10.48
2019-01-16T11:31:23.683Z,10.55
2019-01-16T11:32:53.359Z,10.48
2019-01-16T11:34:16.454Z,9.38
2019-01-16T11:35:39.920Z,9.83
2019-01-16T11:37:14.983Z,9.70
2019-01-16T11:38:45.547Z,9.25
2019-01-16T11:40:04.959Z,9.55
2019-01-16T11:41:28.263Z,8.80
2019-01-16T11:42:51.747Z,8.80
2019-01-16T11:44:22.546Z,9.03
2019-01-16T11:45:47.268Z,9.65
2019-01-16T11:47:10.826Z,10.13
2019-01-16T11:48:31.706Z,10.15
2019-01-16T11:49:55.005Z,10.20
2019-01-16T11:51:34.903Z,8.90
2019-01-16T11:53:02.811Z,8.30
2019-01-16T11:54:27.498Z,9.28
2019-01-16T11:55:51.575Z,8.73
2019-01-16T11:57:22.118Z,8.43
2019-01-16T11:58:44.873Z,8.30
2019-01-16T12:00:15.350Z,8.50
2019-01-16T12:01:43.108Z,8.48
2019-01-16T12:03:08.931Z,7.90
2019-01-16T12:04:39.601Z,9.18
2019-01-16T12:06:04.348Z,7.10
2019-01-16T12:07:30.729Z,7.90
2019-01-16T12:08:55.534Z,8.53
2019-01-16T12:10:19.126Z,9.18
2019-01-16T12:11:52.991Z,8.15
2019-01-16T12:13:22.028Z,7.87
2019-01-16T12:14:44.748Z,8.28
2019-01-16T12:16:00.032Z,7.60
2019-01-16T12:17:29.681Z,7.80
2019-01-16T12:18:52.707Z,7.78
2019-01-16T12:20:12.891Z,6.90
2019-01-16T12:21:36.468Z,8.30
2019-01-16T12:23:07.228Z,8.43
2019-01-16T12:24:36.155Z,7.65
2019-01-16T12:26:08.009Z,6.42
2019-01-16T12:27:28.690Z,6.60
2019-01-16T12:28:53.654Z,6.40
2019-01-16T12:30:17.010Z,6.90
2019-01-16T12:31:44.716Z,6.80
2019-01-16T12:33:12.505Z,7.65
2019-01-16T12:34:46.390Z,6.22
2019-01-16T12:36:09.648Z,7.08
2019-01-16T12:37:43.239Z,6.92
2019-01-16T12:39:12.213Z,7.60
2019-01-16T12:40:29.635Z,7.05
2019-01-16T12:42:12.783Z,7.45
2019-01-16T12:43:46.332Z,8.43
2019-01-16T12:45:09.964Z,8.48
2019-01-16T12:46:37.463Z,8.38
2019-01-16T12:48:08.297Z,8.45
2019-01-16T12:49:27.775Z,7.62
2019-01-16T12:50:50.612Z,8.10
2019-01-16T12:52:21.330Z,7.92
2019-01-16T12:53:44.506Z,7.95
2019-01-16T12:55:08.149Z,6.85
2019-01-16T12:56:27.042Z,6.78
2019-01-16T12:58:01.074Z,6.42
2019-01-16T12:59:25.163Z,6.78
2019-01-16T13:00:53.280Z,6.10
2019-01-16T13:02:24.097Z,7.20
2019-01-16T13:03:41.923Z,7.53
2019-01-16T13:04:59.484Z,7.17
2019-01-16T13:06:19.825Z,7.20
2019-01-16T13:07:43.622Z,7.67
2019-01-16T13:09:08.471Z,7.75
2019-01-16T13:10:31.858Z,7.25
2019-01-16T13:11:59.407Z,8.08
2019-01-16T13:13:27.190Z,7.85
2019-01-16T13:14:51.163Z,8.35
2019-01-16T13:16:15.892Z,9.58
2019-01-16T13:17:55.957Z,10.28
2019-01-16T13:19:19.257Z,12.30
2019-01-16T13:20:35.902Z,15.25
2019-01-16T13:21:57.382Z,14.30
2019-01-16T13:23:20.911Z,16.27
2019-01-16T13:24:44.514Z,17.90
2019-01-16T13:26:08.129Z,17.27
2019-01-16T13:27:32.304Z,17.40
2019-01-16T13:28:55.947Z,17.92
2019-01-16T13:30:36.308Z,18.30
2019-01-16T13:32:10.170Z,16.67
2019-01-16T13:33:33.147Z,16.60
2019-01-16T13:35:01.193Z,18.92
2019-01-16T13:36:29.053Z,16.32
2019-01-16T13:37:52.866Z,15.48
2019-01-16T13:39:20.694Z,15.53
2019-01-16T13:40:45.871Z,17.52
2019-01-16T13:42:10.665Z,20.23
2019-01-16T13:43:38.350Z,18.27
2019-01-16T13:45:01.824Z,16.80
2019-01-16T13:46:32.490Z,17.48
2019-01-16T13:47:56.224Z,15.83
2019-01-16T13:49:19.771Z,17.12
2019-01-16T13:50:43.434Z,17.07
2019-01-16T13:52:06.787Z,18.50
2019-01-16T13:53:49.836Z,18.45
2019-01-16T13:55:13.511Z,18.42
2019-01-16T13:56:56.943Z,17.75
2019-01-16T13:58:30.803Z,18.77
2019-01-16T13:59:56.876Z,19.10
2019-01-16T14:01:21.888Z,18.80
2019-01-16T14:02:35.254Z,20.00
2019-01-16T14:04:03.176Z,18.92
2019-01-16T14:05:29.001Z,18.90
2019-01-16T14:06:56.620Z,19.90
2019-01-16T14:08:21.418Z,20.00
2019-01-16T14:09:55.692Z,21.95
2019-01-16T14:11:20.688Z,20.27
2019-01-16T14:12:35.939Z,21.97
2019-01-16T14:14:00.748Z,21.55
2019-01-16T14:15:27.282Z,21.52
2019-01-16T14:16:53.106Z,22.02
2019-01-16T14:18:23.619Z,23.12
2019-01-16T14:20:03.811Z,22.22
2019-01-16T14:21:43.996Z,22.77
2019-01-16T14:23:07.597Z,22.87
2019-01-16T14:24:38.345Z,23.40
2019-01-16T14:26:04.928Z,24.55
2019-01-16T14:27:28.426Z,24.10
2019-01-16T14:28:56.321Z,25.55
2019-01-16T14:30:15.395Z,25.72
2019-01-16T14:31:48.958Z,26.33
2019-01-16T14:33:08.787Z,26.17
2019-01-16T14:34:39.526Z,27.17
2019-01-16T14:35:58.003Z,28.55
2019-01-16T14:37:22.917Z,29.07
2019-01-16T14:38:43.424Z,28.10
2019-01-16T14:40:12.165Z,29.10
2019-01-16T14:41:35.484Z,27.07
2019-01-16T14:43:06.576Z,27.37
2019-01-16T14:44:31.263Z,25.30
2019-01-16T14:46:15.541Z,28.12
2019-01-16T14:47:52.210Z,26.33
2019-01-16T14:49:23.091Z,27.05
2019-01-16T14:50:45.313Z,26.42
2019-01-16T14:52:19.504Z,26.90
2019-01-16T14:53:53.797Z,26.40
2019-01-16T14:55:17.408Z,26.87
2019-01-16T14:56:40.890Z,27.22
2019-01-16T14:57:59.457Z,25.88
2019-01-16T14:59:18.395Z,26.48
2019-01-16T15:00:46.448Z,27.22
2019-01-16T15:02:30.642Z,24.45
2019-01-16T15:04:11.919Z,26.33
2019-01-16T15:05:36.725Z,24.72
2019-01-16T15:07:01.511Z,25.52
2019-01-16T15:08:29.338Z,25.85
2019-01-16T15:10:00.307Z,25.10
2019-01-16T15:11:28.197Z,23.70
2019-01-16T15:13:05.226Z,24.55
2019-01-16T15:14:32.715Z,22.48
2019-01-16T15:16:06.047Z,23.65
2019-01-16T15:17:43.307Z,23.05
2019-01-16T15:19:06.730Z,23.57
2019-01-16T15:20:34.806Z,23.55
2019-01-16T15:21:58.107Z,22.80
2019-01-16T15:23:25.388Z,22.15
2019-01-16T15:24:41.807Z,21.37
2019-01-16T15:26:05.156Z,22.82
2019-01-16T15:27:49.272Z,22.27
2019-01-16T15:29:32.190Z,20.60
2019-01-16T15:31:07.870Z,20.80
2019-01-16T15:32:32.993Z,20.30
2019-01-16T15:33:50.735Z,21.68
2019-01-16T15:35:13.900Z,21.62
2019-01-16T15:36:38.588Z,20.50
2019-01-16T15:38:02.345Z,19.98
2019-01-16T15:39:46.470Z,19.30
2019-01-16T15:41:10.134Z,18.85
2019-01-16T15:42:38.653Z,18.80
2019-01-16T15:44:09.174Z,20.08
2019-01-16T15:45:36.789Z,19.23
2019-01-16T15:46:54.269Z,19.75
2019-01-16T15:48:17.894Z,19.62
2019-01-16T15:49:41.669Z,17.90
2019-01-16T15:51:06.512Z,19.92
2019-01-16T15:52:30.065Z,20.97
2019-01-16T15:53:57.969Z,20.27
2019-01-16T15:55:22.815Z,20.62
2019-01-16T15:56:47.655Z,19.82
2019-01-16T15:58:11.106Z,20.15
2019-01-16T15:59:25.919Z,19.60
2019-01-16T16:00:49.285Z,20.60
2019-01-16T16:02:21.648Z,20.62
2019-01-16T16:03:45.330Z,21.17
2019-01-16T16:07:39.288Z,20.92
2019-01-16T16:09:16.699Z,18.95
2019-01-16T16:11:41.732Z,20.15
2019-01-16T16:13:18.290Z,19.37
2019-01-16T16:14:35.069Z,19.73
2019-01-16T16:15:59.921Z,21.27
2019-01-16T16:17:23.313Z,20.32
2019-01-16T16:18:46.283Z,20.10
2019-01-16T16:20:16.506Z,21.02
2019-01-16T16:22:37.217Z,19.50
2019-01-16T16:24:06.236Z,20.52
2019-01-16T16:30:09.016Z,20.75
2019-01-16T16:31:46.252Z,22.90
2019-01-16T16:33:09.585Z,23.90
2019-01-16T16:34:34.965Z,24.80
2019-01-16T16:35:59.024Z,23.22
2019-01-16T16:37:27.037Z,23.75
2019-01-16T16:39:03.918Z,25.55
2019-01-16T16:40:37.874Z,25.02
2019-01-16T16:41:54.966Z,25.10
2019-01-16T16:43:18.601Z,25.55
2019-01-16T16:44:43.952Z,25.85
2019-01-16T16:46:08.927Z,26.80
2019-01-16T16:47:39.729Z,28.67
2019-01-16T16:49:03.042Z,26.70
2019-01-16T16:50:33.970Z,27.90
2019-01-16T16:52:04.476Z,27.32
2019-01-16T16:53:35.428Z,24.02
2019-01-16T16:55:01.205Z,26.62
2019-01-16T16:56:25.656Z,24.43
2019-01-16T16:57:49.258Z,25.85
2019-01-16T16:59:29.855Z,25.77
2019-01-16T17:01:09.621Z,23.60
2019-01-16T17:02:35.258Z,25.30
2019-01-16T17:04:01.894Z,25.70
2019-01-16T17:05:36.364Z,24.37
2019-01-16T17:06:59.871Z,24.98
2019-01-16T17:08:40.278Z,24.67
2019-01-16T17:09:58.731Z,25.68
2019-01-16T17:11:26.002Z,24.95
2019-01-16T17:12:53.524Z,24.85
2019-01-16T17:14:19.323Z,26.48
2019-01-16T17:15:44.034Z,26.25
2019-01-16T17:17:05.216Z,25.85
2019-01-16T17:18:30.019Z,24.70
2019-01-16T17:20:07.342Z,25.05
2019-01-16T17:21:38.258Z,26.02
2019-01-16T17:22:59.302Z,25.72
2019-01-16T17:24:24.173Z,25.70
2019-01-16T17:25:52.176Z,25.82
2019-01-16T17:27:15.622Z,25.00
2019-01-16T17:28:39.342Z,26.87
2019-01-16T17:30:10.159Z,24.60
2019-01-16T17:31:33.779Z,26.77
2019-01-16T17:32:50.099Z,26.75
2019-01-16T17:34:33.441Z,25.70
2019-01-16T17:35:58.647Z,25.12
2019-01-16T17:37:33.255Z,25.45
2019-01-16T17:39:03.649Z,24.18
2019-01-16T17:40:44.338Z,27.10
2019-01-16T17:42:15.293Z,26.73
2019-01-16T17:43:48.285Z,27.13
2019-01-16T17:45:24.895Z,27.10
2019-01-16T17:46:50.388Z,26.37
2019-01-16T17:48:15.374Z,27.10
2019-01-16T17:49:45.306Z,28.23
2019-01-16T17:51:16.737Z,29.57
2019-01-16T17:52:40.387Z,26.27
2019-01-16T17:54:07.978Z,27.42
2019-01-16T17:55:39.097Z,27.32
2019-01-16T17:57:02.969Z,31.10
2019-01-16T17:58:26.887Z,31.02
2019-01-16T17:59:43.385Z,32.78
2019-01-16T18:01:05.280Z,31.17
2019-01-16T18:02:39.816Z,34.45
2019-01-16T18:04:03.313Z,31.25
2019-01-16T18:05:25.063Z,30.72
2019-01-16T18:07:05.158Z,27.00
2019-01-16T18:08:36.331Z,29.77
2019-01-16T18:10:07.266Z,30.30
2019-01-16T18:11:34.948Z,29.18
2019-01-16T18:12:54.469Z,30.15
2019-01-16T18:14:14.455Z,28.40
2019-01-16T18:15:35.035Z,26.05
2019-01-16T18:17:06.175Z,27.65
2019-01-16T18:18:27.912Z,28.30
2019-01-16T18:19:48.629Z,28.95
2019-01-16T18:21:23.066Z,27.87
2019-01-16T18:22:49.164Z,27.35
2019-01-16T18:24:16.911Z,27.27
2019-01-16T18:25:56.955Z,27.50
2019-01-16T18:27:30.855Z,27.45
2019-01-16T18:28:54.308Z,26.55
2019-01-16T18:30:17.756Z,26.65
2019-01-16T18:31:45.895Z,27.13
2019-01-16T18:33:09.422Z,26.93
2019-01-16T18:34:37.092Z,27.30
2019-01-16T18:36:04.683Z,25.80
2019-01-16T18:37:28.284Z,27.25
2019-01-16T18:38:56.024Z,27.73
2019-01-16T18:40:15.685Z,26.48
2019-01-16T18:41:34.889Z,25.25
2019-01-16T18:42:58.633Z,24.45
2019-01-16T18:44:36.605Z,26.00
2019-01-16T18:46:04.844Z,25.48
2019-01-16T18:47:36.131Z,24.82
2019-01-16T18:49:01.349Z,24.15
2019-01-16T18:50:28.822Z,23.90
2019-01-16T18:51:52.736Z,24.65
2019-01-16T18:53:10.360Z,25.70
2019-01-16T18:54:37.738Z,24.52
2019-01-16T18:55:55.320Z,24.50
2019-01-16T18:57:27.237Z,25.72
2019-01-16T18:58:54.904Z,26.10
2019-01-16T19:00:13.256Z,26.75
2019-01-16T19:01:37.270Z,25.43
2019-01-16T19:03:11.180Z,24.52
2019-01-16T19:04:45.379Z,27.22
2019-01-16T19:06:09.485Z,26.05
2019-01-16T19:07:33.307Z,28.23
2019-01-16T19:08:59.059Z,27.20
2019-01-16T19:10:32.365Z,28.87
2019-01-16T19:12:16.437Z,26.07
2019-01-16T19:13:44.282Z,26.85